Time;durP1;ratioP1;P1;durP2;ratioP2;P2;SDS_P1;SDS_P2;PMS_P1;PMS_P2;Temp;Humidity;BMP_temperature;BMP_pressure;BME280_temperature;BME280_humidity;BME280_pressure;Samples;Min_cycle;Max_cycle;Signal;HPM_P1;HPM_P2
2021/08/26 00:00:57;;;;;;;2.45;1.98;;;;;;;14.19;92.96;99012.30;1748730;80;21034;-73
2021/08/26 00:06:04;;;;;;;2.98;1.90;;;;;;;14.18;92.42;99016.80;1769232;80;20999;-73
2021/08/26 00:08:32;;;;;;;7.28;1.98;;;;;;;14.16;92.66;99013.58;1753962;80;20987;-73
2021/08/26 00:11:00;;;;;;;6.00;2.40;;;;;;;14.14;92.86;99010.37;1734828;80;21534;-74
2021/08/26 00:13:28;;;;;;;6.25;2.52;;;;;;;14.14;93.40;99006.23;1732941;81;21055;-73
2021/08/26 00:15:57;;;;;;;2.37;1.85;;;;;;;14.17;93.54;99010.47;1727723;82;21172;-73
2021/08/26 00:18:24;;;;;;;4.12;2.20;;;;;;;14.19;93.51;99004.59;1732151;82;20880;-74
2021/08/26 00:20:54;;;;;;;3.00;2.40;;;;;;;14.16;93.20;99008.06;1720882;82;21003;-74
2021/08/26 00:23:21;;;;;;;4.92;2.37;;;;;;;14.14;93.43;99012.55;1729383;82;21019;-74
2021/08/26 00:25:50;;;;;;;2.98;2.22;;;;;;;14.14;93.39;99011.75;1719069;82;20909;-76
2021/08/26 00:28:17;;;;;;;3.00;2.22;;;;;;;14.14;93.59;99005.66;1724235;82;21579;-76
2021/08/26 00:30:45;;;;;;;2.80;1.90;;;;;;;14.16;93.82;99013.01;1726234;82;20928;-76
2021/08/26 00:33:11;;;;;;;4.10;2.15;;;;;;;14.19;94.00;99012.88;1734099;81;20932;-74
2021/08/26 00:35:38;;;;;;;2.83;2.10;;;;;;;14.20;94.04;99004.25;1734461;81;20947;-73
2021/08/26 00:38:04;;;;;;;2.08;1.75;;;;;;;14.24;94.09;99011.83;1725972;82;20937;-74
2021/08/26 00:40:31;;;;;;;3.50;2.30;;;;;;;14.23;94.07;99006.88;1724655;80;21504;-75
2021/08/26 00:42:59;;;;;;;2.08;1.80;;;;;;;14.26;94.08;99007.55;1744900;80;20892;-74
2021/08/26 00:45:28;;;;;;;4.12;2.10;;;;;;;14.26;93.96;99002.03;1729468;81;21415;-73
2021/08/26 00:47:55;;;;;;;4.60;2.10;;;;;;;14.27;94.11;99009.16;1749991;81;20939;-73
2021/08/26 00:50:25;;;;;;;4.50;2.22;;;;;;;14.27;94.13;99005.59;1732146;81;21077;-72
2021/08/26 00:52:55;;;;;;;4.05;2.37;;;;;;;14.26;94.07;99004.80;1721821;82;21558;-73
2021/08/26 00:55:23;;;;;;;3.22;2.45;;;;;;;14.27;94.19;99002.26;1721910;82;21603;-74
2021/08/26 00:57:49;;;;;;;3.95;2.02;;;;;;;14.27;94.38;99001.45;1724566;81;20969;-74
2021/08/26 01:00:17;;;;;;;2.77;2.05;;;;;;;14.24;94.57;98996.64;1711339;82;20957;-74
2021/08/26 01:03:06;;;;;;;3.47;2.50;;;;;;;14.23;94.83;98998.59;1736912;82;20928;-74
2021/08/26 01:05:52;;;;;;;3.60;2.45;;;;;;;14.22;95.16;98998.38;1729205;81;21507;-75
2021/08/26 01:08:40;;;;;;;4.78;2.47;;;;;;;14.23;95.38;98998.59;1716734;82;20905;-75
2021/08/26 01:11:07;;;;;;;4.03;3.00;;;;;;;14.25;95.49;98998.25;1741733;81;21051;-75
2021/08/26 01:13:40;;;;;;;4.35;3.12;;;;;;;14.21;95.38;98992.05;1736342;81;20932;-75
2021/08/26 01:16:10;;;;;;;6.53;2.55;;;;;;;14.20;95.36;98984.12;1737906;81;25379;-75
2021/08/26 01:18:48;;;;;;;3.55;2.77;;;;;;;14.20;95.44;98986.88;1738362;81;21138;-74
2021/08/26 01:21:23;;;;;;;3.35;2.80;;;;;;;14.20;95.51;98981.36;1733288;81;20984;-74
2021/08/26 01:23:59;;;;;;;3.77;2.87;;;;;;;14.18;95.59;98985.05;1728715;81;21534;-75
2021/08/26 01:26:35;;;;;;;3.72;2.92;;;;;;;14.16;95.57;98987.36;1716408;82;20929;-75
2021/08/26 01:29:05;;;;;;;4.35;3.25;;;;;;;14.16;95.69;98984.60;1734045;82;20932;-75
2021/08/26 01:31:32;;;;;;;4.58;2.80;;;;;;;14.17;95.63;98986.20;1728426;81;21574;-75
2021/08/26 01:33:59;;;;;;;6.55;3.52;;;;;;;14.17;96.01;98977.92;1739573;81;20987;-75
2021/08/26 01:36:26;;;;;;;3.45;3.00;;;;;;;14.19;96.49;98978.38;1716654;82;21107;-74
2021/08/26 01:38:53;;;;;;;6.80;3.12;;;;;;;14.18;96.66;98980.33;1743002;81;20947;-76
2021/08/26 01:41:19;;;;;;;5.03;2.83;;;;;;;14.17;96.80;98984.83;1711688;82;20917;-75
2021/08/26 01:43:47;;;;;;;4.87;3.02;;;;;;;14.14;96.76;98980.81;1729234;81;20925;-74
2021/08/26 01:46:15;;;;;;;3.72;2.87;;;;;;;14.12;96.98;98980.36;1726558;81;21106;-74
2021/08/26 01:48:44;;;;;;;3.60;3.20;;;;;;;14.11;97.63;98987.62;1728956;81;21000;-74
2021/08/26 01:51:11;;;;;;;4.95;3.25;;;;;;;14.10;97.61;98978.53;1710584;83;21098;-76
2021/08/26 01:53:37;;;;;;;5.70;2.87;;;;;;;14.10;97.59;98972.21;1713422;82;20996;-75
2021/08/26 01:56:05;;;;;;;4.12;3.08;;;;;;;14.12;97.27;98980.36;1720837;81;21119;-72
2021/08/26 01:58:31;;;;;;;4.03;2.95;;;;;;;14.11;97.01;98971.05;1728747;81;20884;-72
2021/08/26 02:00:58;;;;;;;6.75;3.02;;;;;;;14.11;97.41;98966.34;1732459;82;20959;-75
2021/08/26 02:03:24;;;;;;;5.33;3.27;;;;;;;14.12;97.44;98969.91;1735885;82;20971;-75
2021/08/26 02:05:51;;;;;;;5.30;3.35;;;;;;;14.10;97.56;98967.49;1737745;82;20987;-75
2021/08/26 02:08:17;;;;;;;4.47;3.35;;;;;;;14.10;97.89;98966.69;1732588;81;22137;-75
2021/08/26 02:10:43;;;;;;;3.87;3.42;;;;;;;14.11;98.00;98968.30;1732965;81;20992;-75
2021/08/26 02:13:10;;;;;;;5.33;3.30;;;;;;;14.11;97.95;98969.09;1716582;82;20936;-75
2021/08/26 02:15:36;;;;;;;8.35;4.30;;;;;;;14.09;97.92;98967.27;1712053;82;21417;-75
2021/08/26 02:18:02;;;;;;;4.50;3.12;;;;;;;14.09;98.03;98965.89;1716750;82;20933;-73
2021/08/26 02:20:29;;;;;;;3.92;3.52;;;;;;;14.10;98.18;98968.88;1717279;82;21105;-77
2021/08/26 02:22:56;;;;;;;6.53;4.22;;;;;;;14.09;98.31;98965.09;1730765;81;21427;-77
2021/08/26 02:25:22;;;;;;;5.67;3.70;;;;;;;14.07;98.51;98965.44;1730872;81;20925;-76
2021/08/26 02:27:49;;;;;;;4.60;3.83;;;;;;;14.07;98.63;98959.92;1723705;81;21177;-76
2021/08/26 02:30:16;;;;;;;4.40;3.77;;;;;;;14.06;98.82;98952.80;1714076;81;21074;-78
2021/08/26 02:32:43;;;;;;;4.92;3.45;;;;;;;14.04;99.01;98957.86;1729346;81;21952;-78
2021/08/26 02:35:10;;;;;;;6.53;3.58;;;;;;;14.04;99.09;98958.44;1708900;82;20934;-77
2021/08/26 02:37:37;;;;;;;4.37;3.20;;;;;;;14.05;99.23;98954.52;1726834;81;21101;-77
2021/08/26 02:40:05;;;;;;;6.70;3.60;;;;;;;14.04;99.33;98952.34;1741749;81;20900;-77
2021/08/26 02:42:32;;;;;;;7.08;3.65;;;;;;;14.03;99.59;98956.84;1740987;81;20927;-77
2021/08/26 02:44:58;;;;;;;11.20;3.98;;;;;;;14.00;99.65;98958.34;1735888;81;21499;-74
2021/08/26 02:47:25;;;;;;;4.53;3.55;;;;;;;14.00;99.88;98954.20;1728829;81;20928;-73
2021/08/26 02:49:51;;;;;;;5.80;4.22;;;;;;;14.01;99.92;98958.56;1725128;81;21550;-74
2021/08/26 02:52:18;;;;;;;5.60;3.75;;;;;;;14.01;99.78;98955.80;1737058;81;20930;-73
2021/08/26 02:54:45;;;;;;;6.08;3.83;;;;;;;13.98;99.76;98959.85;1721908;82;21044;-75
2021/08/26 02:57:11;;;;;;;4.67;3.72;;;;;;;13.96;99.79;98949.73;1732890;81;21135;-74
2021/08/26 02:59:38;;;;;;;10.90;3.90;;;;;;;13.95;99.87;98960.55;1732571;81;20968;-74
2021/08/26 03:02:05;;;;;;;7.90;4.65;;;;;;;13.92;99.91;98949.64;1729462;81;21038;-74
2021/08/26 03:04:31;;;;;;;6.58;4.20;;;;;;;13.91;100.00;98945.86;1744801;81;21051;-73
2021/08/26 03:06:59;;;;;;;6.80;4.22;;;;;;;13.91;99.99;98945.28;1727030;82;20975;-73
2021/08/26 03:09:26;;;;;;;7.25;3.90;;;;;;;13.92;99.90;98945.50;1714747;83;21505;-75
2021/08/26 03:11:52;;;;;;;8.80;4.10;;;;;;;13.93;99.93;98941.59;1723101;81;20932;-73
2021/08/26 03:14:19;;;;;;;8.30;3.77;;;;;;;13.94;99.93;98943.77;1716621;82;20900;-73
2021/08/26 03:16:45;;;;;;;6.87;3.75;;;;;;;13.93;99.83;98941.59;1724694;82;20964;-74
2021/08/26 03:19:12;;;;;;;4.90;3.62;;;;;;;13.94;99.76;98954.81;1737770;81;20939;-75
2021/08/26 03:21:38;;;;;;;10.32;4.17;;;;;;;13.91;99.79;98947.23;1736569;81;21111;-75
2021/08/26 03:24:05;;;;;;;7.42;4.37;;;;;;;13.88;100.00;98949.55;1735335;82;20892;-75
2021/08/26 03:26:32;;;;;;;4.83;3.60;;;;;;;13.89;100.00;98945.62;1727788;82;21603;-77
2021/08/26 03:28:59;;;;;;;5.90;4.12;;;;;;;13.90;100.00;98950.57;1713952;81;21007;-77
2021/08/26 03:31:26;;;;;;;6.97;3.95;;;;;;;13.89;100.00;98949.77;1734798;81;21510;-77
2021/08/26 03:33:53;;;;;;;6.45;3.67;;;;;;;13.92;100.00;98954.36;1721790;81;22104;-77
2021/08/26 03:36:26;;;;;;;9.33;4.45;;;;;;;13.94;100.00;98949.30;1733396;81;21110;-77
2021/08/26 03:38:49;;;;;;;7.10;4.22;;;;;;;13.98;100.00;98940.53;1724781;81;21530;-73
2021/08/26 03:41:16;;;;;;;6.17;4.22;;;;;;;13.99;100.00;98938.80;1720600;82;21063;-72
2021/08/26 03:43:43;;;;;;;6.58;3.90;;;;;;;14.02;100.00;98941.44;1727099;81;21008;-72
2021/08/26 03:46:09;;;;;;;8.25;4.58;;;;;;;14.05;100.00;98942.11;1720990;81;21086;-76
2021/08/26 03:48:35;;;;;;;5.67;4.00;;;;;;;14.07;100.00;98936.45;1716825;82;21448;-76
2021/08/26 03:51:02;;;;;;;8.18;4.15;;;;;;;14.08;100.00;98935.88;1722080;81;20955;-75
2021/08/26 03:53:29;;;;;;;5.40;4.45;;;;;;;14.09;100.00;98930.01;1736102;80;20960;-76
2021/08/26 03:55:56;;;;;;;7.62;3.87;;;;;;;14.09;100.00;98934.73;1732995;80;21107;-76
2021/08/26 03:58:22;;;;;;;5.78;3.60;;;;;;;14.09;100.00;98943.01;1747156;80;22151;-75
2021/08/26 04:00:48;;;;;;;4.92;3.95;;;;;;;14.09;100.00;98936.91;1768125;80;21491;-75
2021/08/26 04:03:15;;;;;;;4.42;3.55;;;;;;;14.11;100.00;98933.22;1773418;80;21039;-76
2021/08/26 04:05:41;;;;;;;6.15;3.37;;;;;;;14.12;100.00;98929.88;1753754;80;20923;-76
2021/08/26 04:08:08;;;;;;;4.00;3.60;;;;;;;14.11;100.00;98933.80;1755674;80;21034;-76
2021/08/26 04:10:35;;;;;;;8.28;3.85;;;;;;;14.11;100.00;98937.36;1753094;80;21546;-77
2021/08/26 04:13:03;;;;;;;8.23;4.40;;;;;;;14.14;100.00;98939.98;1734673;80;20884;-77
2021/08/26 04:15:31;;;;;;;4.90;3.70;;;;;;;14.19;100.00;98936.39;1728919;81;20972;-78
2021/08/26 04:17:59;;;;;;;7.65;4.53;;;;;;;14.24;100.00;98948.33;1746012;82;21003;-76
2021/08/26 04:20:25;;;;;;;7.08;4.08;;;;;;;14.25;100.00;98943.84;1725976;81;21514;-77
2021/08/26 04:22:52;;;;;;;8.98;4.00;;;;;;;14.29;100.00;98945.31;1745887;82;21068;-77
2021/08/26 04:25:18;;;;;;;4.55;3.72;;;;;;;14.31;100.00;98936.09;1749014;82;20955;-77
2021/08/26 04:27:45;;;;;;;3.87;3.47;;;;;;;14.32;100.00;98945.98;1743573;81;20916;-77
2021/08/26 04:30:12;;;;;;;5.03;4.08;;;;;;;14.30;99.84;98931.73;1725537;81;21472;-75
2021/08/26 04:32:38;;;;;;;6.90;3.83;;;;;;;14.28;99.82;98930.70;1721319;82;21566;-78
2021/08/26 04:35:07;;;;;;;4.45;3.17;;;;;;;14.27;99.97;98931.86;1724256;81;21143;-76
2021/08/26 04:37:34;;;;;;;8.13;3.98;;;;;;;14.32;100.00;98934.36;1726016;82;20936;-77
2021/08/26 04:40:01;;;;;;;6.00;4.22;;;;;;;14.33;100.00;98933.20;1726752;83;20952;-75
2021/08/26 04:42:27;;;;;;;10.55;4.17;;;;;;;14.38;100.00;98932.14;1735329;82;20931;-78
2021/08/26 04:44:54;;;;;;;6.15;4.00;;;;;;;14.38;99.94;98927.99;1747014;80;21018;-77
2021/08/26 04:47:21;;;;;;;6.95;3.70;;;;;;;14.39;99.89;98929.59;1746075;80;21929;-77
2021/08/26 04:49:47;;;;;;;6.83;3.83;;;;;;;14.39;99.72;98933.74;1736602;80;20973;-77
2021/08/26 04:52:14;;;;;;;9.03;4.05;;;;;;;14.38;99.72;98928.80;1730122;81;20991;-77
2021/08/26 04:54:42;;;;;;;8.23;3.83;;;;;;;14.40;99.58;98931.20;1778071;80;20928;-79
2021/08/26 04:57:11;;;;;;;5.47;3.87;;;;;;;14.39;99.95;98927.64;1690643;82;21515;-75
2021/08/26 04:59:38;;;;;;;6.28;3.70;;;;;;;14.44;99.79;98932.13;1674668;84;21143;-77
2021/08/26 05:02:07;;;;;;;4.70;3.60;;;;;;;14.44;99.34;98927.98;1681835;84;21478;-76
2021/08/26 05:04:43;;;;;;;6.53;4.27;;;;;;;14.44;99.22;98930.75;1657403;85;20981;-77
2021/08/26 05:07:12;;;;;;;4.57;3.70;;;;;;;14.44;99.69;98920.47;1675864;84;21512;-78
2021/08/26 05:09:43;;;;;;;6.50;4.35;;;;;;;14.46;99.74;98916.77;1689060;83;22166;-75
2021/08/26 05:12:15;;;;;;;6.10;4.45;;;;;;;14.46;99.25;98911.83;1658922;83;20979;-72
2021/08/26 05:14:47;;;;;;;5.33;4.15;;;;;;;14.42;99.24;98909.01;1685530;84;21003;-75
2021/08/26 05:17:15;;;;;;;6.62;4.12;;;;;;;14.39;99.56;98905.55;1676548;84;20986;-75
2021/08/26 05:19:47;;;;;;;5.75;4.22;;;;;;;14.39;99.73;98912.45;1685802;83;20893;-77
2021/08/26 05:22:19;;;;;;;9.75;4.47;;;;;;;14.38;99.94;98906.70;1664529;83;20982;-77
2021/08/26 05:24:50;;;;;;;7.35;4.62;;;;;;;14.37;99.78;98905.69;1689103;83;21466;-75
2021/08/26 05:27:20;;;;;;;5.70;4.03;;;;;;;14.38;100.00;98903.14;1675047;84;20879;-76
2021/08/26 05:29:52;;;;;;;5.90;4.50;;;;;;;14.37;100.00;98899.58;1706104;81;21070;-83
2021/08/26 05:32:20;;;;;;;8.23;3.80;;;;;;;14.39;100.00;98908.31;1693022;83;21030;-72
2021/08/26 05:34:49;;;;;;;4.80;3.80;;;;;;;14.40;100.00;98905.77;1717966;83;20948;-76
2021/08/26 05:37:23;;;;;;;4.83;3.75;;;;;;;14.40;100.00;98916.81;1712474;82;21172;-78
2021/08/26 05:39:53;;;;;;;4.42;3.40;;;;;;;14.41;99.51;98918.45;1771511;80;20908;-76
2021/08/26 05:42:20;;;;;;;4.80;4.25;;;;;;;14.41;98.77;98915.69;1780117;80;21486;-72
2021/08/26 05:44:53;;;;;;;7.10;4.30;;;;;;;14.43;98.76;98921.66;1750967;80;21534;-77
2021/08/26 05:47:21;;;;;;;5.20;4.03;;;;;;;14.42;98.38;98917.30;1729532;82;20977;-77
2021/08/26 05:49:49;;;;;;;7.67;3.75;;;;;;;14.43;98.36;98912.00;1726129;82;21570;-82
2021/08/26 05:52:22;;;;;;;4.42;3.80;;;;;;;14.48;98.61;98924.13;1724140;81;21498;-76
2021/08/26 05:54:54;;;;;;;;;;;;;;;14.50;98.74;98925.15;1736665;82;20988;-77
2021/08/26 05:57:23;;;;;;;6.72;3.85;;;;;;;14.53;98.56;98923.86;1708006;82;20092;-80
2021/08/26 05:59:53;;;;;;;6.58;3.67;;;;;;;14.53;98.37;98925.81;1731786;82;20841;-69
2021/08/26 06:02:25;;;;;;;4.90;4.03;;;;;;;14.56;98.30;98920.16;1731419;82;21208;-70
2021/08/26 06:04:55;;;;;;;6.60;3.52;;;;;;;14.56;98.55;98922.34;1740184;82;20979;-71
2021/08/26 06:07:24;;;;;;;4.42;3.47;;;;;;;14.56;98.24;98920.96;1742087;82;20932;-72
2021/08/26 06:09:52;;;;;;;4.78;3.80;;;;;;;14.54;98.00;98926.04;1758325;80;21809;-70
2021/08/26 06:12:23;;;;;;;3.45;2.98;;;;;;;14.53;97.78;98932.72;1758122;80;20963;-70
2021/08/26 06:14:56;;;;;;;5.85;3.80;;;;;;;14.53;97.85;98936.86;1783081;79;21006;-70
2021/08/26 06:17:27;;;;;;;5.05;4.10;;;;;;;14.49;97.08;98937.36;1777722;79;21669;-72
2021/08/26 06:20:01;;;;;;;5.35;3.60;;;;;;;14.44;97.38;98942.56;1792101;79;20940;-69
2021/08/26 06:22:34;;;;;;;4.58;3.72;;;;;;;14.38;97.62;98943.98;1776935;79;21078;-69
2021/08/26 06:25:03;;;;;;;5.92;4.22;;;;;;;14.33;97.97;98940.10;1725342;80;21027;-69
2021/08/26 06:27:35;;;;;;;6.45;4.20;;;;;;;14.29;98.42;98954.39;1736826;81;21153;-70
2021/08/26 06:30:05;;;;;;;5.78;3.95;;;;;;;14.27;99.08;98949.80;1723063;81;21024;-69
2021/08/26 06:32:37;;;;;;;8.48;5.30;;;;;;;14.28;99.47;98954.17;1733316;81;21023;-68
2021/08/26 06:35:12;;;;;;;7.90;5.83;;;;;;;14.28;99.55;98963.83;1734730;81;21493;-70
2021/08/26 06:37:43;;;;;;;7.72;5.85;;;;;;;14.27;99.74;98958.66;1719874;81;20954;-68
2021/08/26 06:40:18;;;;;;;8.70;6.30;;;;;;;14.26;100.00;98957.06;1718851;81;21047;-68
2021/08/26 06:42:44;;;;;;;10.25;5.90;;;;;;;14.24;100.00;98958.80;1702723;83;21011;-69
2021/08/26 06:45:15;;;;;;;6.65;5.92;;;;;;;14.25;100.00;98962.36;1721468;81;21001;-70
2021/08/26 06:47:50;;;;;;;9.10;5.53;;;;;;;14.26;100.00;98962.00;1727741;81;21004;-69
2021/08/26 06:50:19;;;;;;;9.88;5.78;;;;;;;14.28;100.00;98960.27;1753158;80;21063;-69
2021/08/26 06:52:49;;;;;;;8.10;5.87;;;;;;;14.29;100.00;98961.30;1736038;80;21203;-70
2021/08/26 06:55:15;;;;;;;7.37;5.35;;;;;;;14.33;100.00;98960.81;1751374;80;21294;-69
2021/08/26 06:57:45;;;;;;;10.60;6.17;;;;;;;14.37;100.00;98956.19;1747781;80;21542;-70
2021/08/26 07:00:14;;;;;;;9.18;7.30;;;;;;;14.42;100.00;98952.39;1689668;83;20983;-69
2021/08/26 07:02:47;;;;;;;9.17;8.13;;;;;;;14.43;100.00;98947.89;1700673;81;20990;-69
2021/08/26 07:05:17;;;;;;;8.38;6.62;;;;;;;14.48;100.00;98953.12;1701694;82;21244;-70
2021/08/26 07:07:45;;;;;;;11.57;6.13;;;;;;;14.57;100.00;98946.63;1702082;82;21017;-70
2021/08/26 07:10:16;;;;;;;8.95;6.55;;;;;;;14.63;100.00;98949.34;1719874;82;20958;-70
2021/08/26 07:12:48;;;;;;;10.32;6.62;;;;;;;14.63;100.00;98957.63;1670437;83;20987;-69
2021/08/26 07:15:28;;;;;;;7.42;6.08;;;;;;;14.64;100.00;98964.17;1680280;83;21032;-69
2021/08/26 07:17:49;;;;;;;7.47;6.67;;;;;;;14.62;99.79;98959.59;1720195;82;22058;-69
2021/08/26 07:20:19;;;;;;;8.35;6.47;;;;;;;14.62;99.99;98965.69;1688655;83;20988;-72
2021/08/26 07:22:50;;;;;;;9.73;6.20;;;;;;;14.64;100.00;98964.17;1681706;83;21551;-70
2021/08/26 07:25:22;;;;;;;5.67;4.70;;;;;;;14.67;100.00;98964.05;1677641;83;21007;-71
2021/08/26 07:27:49;;;;;;;5.55;4.97;;;;;;;14.68;99.98;98965.06;1678226;83;21043;-73
2021/08/26 07:30:20;;;;;;;5.55;4.20;;;;;;;14.70;100.00;98965.52;1689555;83;21991;-74
2021/08/26 07:32:49;;;;;;;5.60;5.00;;;;;;;14.73;100.00;98963.42;1678773;83;20957;-74
2021/08/26 07:35:23;;;;;;;4.92;4.42;;;;;;;14.75;100.00;98958.34;1684795;83;21031;-72
2021/08/26 07:37:55;;;;;;;6.62;4.08;;;;;;;14.79;100.00;98959.80;1678135;83;21067;-72
2021/08/26 07:40:22;;;;;;;4.33;3.70;;;;;;;14.81;99.92;98961.05;1686654;83;21000;-74
2021/08/26 07:42:55;;;;;;;4.78;3.55;;;;;;;14.86;99.96;98961.36;1659319;83;21569;-71
2021/08/26 07:45:21;;;;;;;7.62;4.22;;;;;;;14.86;99.41;98966.31;1670721;83;21515;-71
2021/08/26 07:47:49;;;;;;;6.83;3.55;;;;;;;14.88;99.36;98963.77;1681096;83;21015;-69
2021/08/26 07:50:15;;;;;;;6.65;4.33;;;;;;;14.91;99.43;98968.00;1683976;83;20915;-71
2021/08/26 07:52:48;;;;;;;7.67;4.10;;;;;;;14.97;99.64;98971.30;1677951;83;21446;-79
2021/08/26 07:55:17;;;;;;;4.92;4.05;;;;;;;14.97;99.32;98969.91;1763391;80;21175;-79
2021/08/26 07:57:48;;;;;;;4.28;3.87;;;;;;;14.97;98.79;98972.09;1758588;80;20872;-70
2021/08/26 08:00:17;;;;;;;7.10;3.80;;;;;;;14.93;98.34;98965.67;1768164;80;20937;-71
2021/08/26 08:02:52;;;;;;;4.22;3.62;;;;;;;14.94;98.55;98966.48;1748722;80;21478;-70
2021/08/26 08:05:20;;;;;;;8.35;4.75;;;;;;;14.96;98.31;98964.16;1779444;80;21506;-81
2021/08/26 08:07:48;;;;;;;5.85;5.08;;;;;;;14.98;98.71;98967.36;1753714;80;21180;-75
2021/08/26 08:10:15;;;;;;;5.97;4.25;;;;;;;15.03;98.96;98967.86;1756234;80;20950;-73
2021/08/26 08:12:43;;;;;;;4.65;4.22;;;;;;;15.07;98.85;98956.31;1747387;82;20935;-70
2021/08/26 08:15:11;;;;;;;5.08;4.25;;;;;;;15.11;99.05;98959.95;1749330;82;20939;-71
2021/08/26 08:17:37;;;;;;;6.25;5.30;;;;;;;15.14;99.71;98966.73;1751812;81;20873;-85
2021/08/26 08:20:06;;;;;;;8.50;4.05;;;;;;;15.13;99.60;98963.16;1762788;80;21443;-85
2021/08/26 08:22:33;;;;;;;4.75;3.60;;;;;;;15.10;99.60;98966.65;1767859;80;21661;-84
2021/08/26 08:24:59;;;;;;;5.37;3.47;;;;;;;15.11;99.36;98971.02;1749226;80;20952;-75
2021/08/26 08:27:25;;;;;;;4.35;3.92;;;;;;;15.12;98.99;98965.70;1741261;80;21085;-76
2021/08/26 08:29:52;;;;;;;4.85;3.58;;;;;;;15.11;98.86;98959.95;1707362;82;21560;-72
2021/08/26 08:32:18;;;;;;;7.83;4.33;;;;;;;15.05;98.24;98961.39;1687130;83;21513;-68
2021/08/26 08:34:45;;;;;;;11.95;8.18;;;;;;;15.01;98.35;98968.83;1690121;83;21066;-68
2021/08/26 08:37:11;;;;;;;15.13;10.68;;;;;;;15.00;98.33;98968.61;1687201;83;21078;-72
2021/08/26 08:39:38;;;;;;;7.60;6.20;;;;;;;14.97;98.15;98972.09;1687168;83;20921;-69
2021/08/26 08:42:08;;;;;;;7.00;4.67;;;;;;;14.95;98.77;98970.84;1675461;83;21115;-68
2021/08/26 08:44:40;;;;;;;4.97;3.90;;;;;;;14.91;98.94;98971.34;1663675;83;20953;-68
2021/08/26 08:47:12;;;;;;;5.10;4.00;;;;;;;14.84;99.09;98963.68;1752493;80;21053;-69
2021/08/26 08:49:43;;;;;;;4.37;3.47;;;;;;;14.82;99.65;98970.95;1717170;80;20985;-69
2021/08/26 08:52:13;;;;;;;4.00;3.60;;;;;;;14.81;100.00;98962.44;1729636;80;20972;-69
2021/08/26 08:54:44;;;;;;;4.55;3.87;;;;;;;14.81;100.00;98959.67;1734325;80;21553;-69
2021/08/26 08:57:14;;;;;;;3.90;3.25;;;;;;;14.87;100.00;98957.44;1739005;80;21208;-69
2021/08/26 08:59:45;;;;;;;3.40;3.05;;;;;;;14.90;100.00;98956.72;1733067;81;21204;-70
2021/08/26 09:02:17;;;;;;;3.08;2.77;;;;;;;14.92;100.00;98953.60;1697956;81;20910;-71
2021/08/26 09:05:03;;;;;;;6.55;3.20;;;;;;;14.94;100.00;98952.66;1724717;81;37815;-72
2021/08/26 09:07:32;;;;;;;5.17;3.17;;;;;;;14.98;100.00;98943.88;1728840;81;21019;-66
2021/08/26 09:10:01;;;;;;;3.80;2.52;;;;;;;15.02;100.00;98953.05;1741861;81;21172;-68
2021/08/26 09:12:49;;;;;;;5.72;2.42;;;;;;;15.04;100.00;98947.35;1689603;83;21737;-68
2021/08/26 09:15:29;;;;;;;8.63;3.25;;;;;;;15.07;100.00;98949.40;1726526;81;21589;-68
2021/08/26 09:18:18;;;;;;;17.62;7.62;;;;;;;15.08;100.00;98955.73;1743007;81;21084;-70
2021/08/26 09:20:57;;;;;;;30.32;20.32;;;;;;;15.03;100.00;98952.66;1740691;81;21018;-70
2021/08/26 09:23:29;;;;;;;16.50;10.75;;;;;;;14.97;100.00;98956.89;1740270;82;21148;-68
2021/08/26 09:26:20;;;;;;;27.52;12.85;;;;;;;14.94;100.00;98956.23;1714469;81;20988;-69
2021/08/26 09:28:50;;;;;;;25.17;5.30;;;;;;;14.90;99.83;98948.43;1729721;81;20902;-69
2021/08/26 09:31:22;;;;;;;19.00;3.60;;;;;;;14.89;100.00;98950.97;1715026;81;20964;-70
2021/08/26 09:34:15;;;;;;;18.05;5.30;;;;;;;14.96;100.00;98950.34;1733677;81;21390;-67
2021/08/26 09:36:54;;;;;;;20.05;4.25;;;;;;;15.03;100.00;98949.09;1752256;80;21146;-67
2021/08/26 09:39:30;;;;;;;7.53;2.75;;;;;;;15.08;99.88;98957.11;1741619;80;20945;-70
2021/08/26 09:42:07;;;;;;;3.92;2.77;;;;;;;15.13;99.51;98959.02;1747596;81;21036;-69
2021/08/26 09:44:38;;;;;;;3.70;3.20;;;;;;;15.14;99.57;98959.82;1741629;80;20932;-70
2021/08/26 09:47:09;;;;;;;4.35;2.80;;;;;;;15.14;99.55;98944.61;1728395;80;20892;-70
2021/08/26 09:49:40;;;;;;;3.72;3.20;;;;;;;15.11;99.83;98940.61;1754977;80;21165;-70
2021/08/26 09:52:16;;;;;;;3.58;2.60;;;;;;;15.13;100.00;98936.91;1730693;80;21042;-67
2021/08/26 09:54:49;;;;;;;4.08;3.20;;;;;;;15.16;100.00;98930.66;1727657;80;21012;-68
2021/08/26 09:57:33;;;;;;;4.10;3.20;;;;;;;15.16;100.00;98938.95;1738795;80;20912;-68
2021/08/26 10:00:05;;;;;;;4.17;2.70;;;;;;;15.16;100.00;98931.23;1699506;82;21080;-69
2021/08/26 10:02:45;;;;;;;2.83;2.52;;;;;;;15.24;100.00;98934.37;1680923;84;21932;-68
2021/08/26 10:05:12;;;;;;;3.35;3.05;;;;;;;15.27;100.00;98926.74;1742831;80;21498;-83
2021/08/26 10:07:41;;;;;;;4.10;3.40;;;;;;;15.28;100.00;98933.87;1745203;81;20895;-77
2021/08/26 10:10:14;;;;;;;2.95;2.60;;;;;;;15.28;100.00;98930.31;1705059;80;20992;-66
2021/08/26 10:12:48;;;;;;;5.25;2.50;;;;;;;15.29;100.00;98936.06;1740006;80;21039;-68
2021/08/26 10:15:18;;;;;;;2.50;2.30;;;;;;;15.28;100.00;98934.45;1740672;81;21154;-68
2021/08/26 10:17:52;;;;;;;2.30;2.10;;;;;;;15.29;100.00;98934.67;1733873;81;21721;-68
2021/08/26 10:20:28;;;;;;;2.65;2.45;;;;;;;15.31;100.00;98927.63;1716933;81;20887;-68
2021/08/26 10:22:55;;;;;;;2.40;2.20;;;;;;;15.32;100.00;98927.05;1699230;80;21073;-67
2021/08/26 10:25:24;;;;;;;2.10;1.90;;;;;;;15.35;100.00;98924.94;1740217;81;22122;-68
2021/08/26 10:27:55;;;;;;;3.85;2.10;;;;;;;15.42;100.00;98923.70;1741776;80;22009;-67
2021/08/26 10:30:33;;;;;;;4.10;1.65;;;;;;;15.48;100.00;98920.88;1726430;80;20971;-67
2021/08/26 10:33:13;;;;;;;1.92;1.80;;;;;;;15.54;100.00;98916.66;1746562;80;21132;-66
2021/08/26 10:36:00;;;;;;;2.33;2.02;;;;;;;15.63;100.00;98915.86;1740821;80;21088;-67
2021/08/26 10:38:31;;;;;;;3.05;2.45;;;;;;;15.73;100.00;98912.50;1733813;80;21035;-68
2021/08/26 10:41:02;;;;;;;3.30;2.60;;;;;;;15.82;99.82;98920.00;1742731;80;21874;-67
2021/08/26 10:43:40;;;;;;;2.55;2.35;;;;;;;15.88;100.00;98918.32;1697787;80;21028;-66
2021/08/26 10:46:08;;;;;;;2.02;1.82;;;;;;;15.94;99.97;98919.05;1737622;80;21031;-67
2021/08/26 10:48:36;;;;;;;2.27;2.08;;;;;;;15.97;99.02;98921.66;1752961;80;21500;-67
2021/08/26 10:51:15;;;;;;;3.35;3.05;;;;;;;15.93;98.28;98927.71;1738528;80;21557;-71
2021/08/26 10:53:47;;;;;;;2.58;2.37;;;;;;;15.89;98.14;98924.08;1756046;80;21581;-67
2021/08/26 10:56:29;;;;;;;4.37;3.55;;;;;;;15.84;97.69;98923.20;1752921;80;21557;-84
2021/08/26 10:58:59;;;;;;;5.00;3.67;;;;;;;15.84;98.36;98924.59;1742782;80;21043;-73
2021/08/26 11:01:38;;;;;;;3.85;3.50;;;;;;;15.86;98.60;98924.22;1744288;80;21019;-72
2021/08/26 11:04:18;;;;;;;6.72;4.25;;;;;;;15.89;98.53;98930.99;1733998;80;21019;-69
2021/08/26 11:06:45;;;;;;;5.62;3.95;;;;;;;15.92;98.58;98929.68;1744413;80;21133;-70
2021/08/26 11:09:20;;;;;;;7.85;4.58;;;;;;;15.95;98.46;98941.41;1732496;81;20952;-70
2021/08/26 11:11:52;;;;;;;4.33;3.80;;;;;;;15.95;98.11;98941.41;1731342;80;21019;-71
2021/08/26 11:14:22;;;;;;;4.92;4.10;;;;;;;15.93;98.02;98936.81;1743173;80;21072;-71
2021/08/26 11:17:04;;;;;;;6.28;3.30;;;;;;;15.92;97.90;98938.56;1725811;82;21070;-73
2021/08/26 11:19:38;;;;;;;4.05;2.67;;;;;;;15.88;97.86;98940.46;1734024;82;21187;-71
2021/08/26 11:22:10;;;;;;;3.00;2.50;;;;;;;15.81;97.64;98937.77;1765791;79;20935;-72
2021/08/26 11:24:47;;;;;;;2.45;2.25;;;;;;;15.78;97.75;98931.58;1783088;79;21526;-72
2021/08/26 11:27:25;;;;;;;4.75;2.77;;;;;;;15.73;97.69;98936.02;1794186;79;21639;-71
2021/08/26 11:29:51;;;;;;;5.10;3.22;;;;;;;15.69;97.90;98936.53;1770765;79;21098;-71
2021/08/26 11:32:24;;;;;;;4.10;3.40;;;;;;;15.64;97.82;98939.59;1744347;80;22569;-71
2021/08/26 11:34:57;;;;;;;6.35;3.72;;;;;;;15.56;98.23;98939.22;1742353;81;20976;-72
2021/08/26 11:37:27;;;;;;;6.70;4.40;;;;;;;15.51;98.85;98936.16;1731472;81;20996;-71
2021/08/26 11:40:03;;;;;;;7.60;4.05;;;;;;;15.43;98.69;98933.61;1710224;81;21005;-72
2021/08/26 11:42:49;;;;;;;7.53;3.85;;;;;;;15.37;99.35;98936.44;1703043;82;21158;-71
2021/08/26 11:45:38;;;;;;;15.53;4.25;;;;;;;15.36;100.00;98937.60;1751520;80;21222;-72